Viimsi — ES2084 — position and weather

sailwx.info

Track history (hours):
 
Tides and Currents Weather Stations Pressure Air Temp Water Temp Dewpoint Dewpoint Depression Visibility Wind Speed Wind Dir Waves Ship Positions

Viimsi

Last reported at 2018-Feb-20 05:31 UTC. Time now 2018-Feb-20 05:52 UTC.
Position N 59°30' E 024°57'.

Length 77 m; draft 5 m.

Type: Ship. MMSI: 276297000.

Date/timePositionNaut miles runAvg speedWind from/ knotsBaromVisibWave heightAir tempDewpointWater temp
2018-Feb-20 05:31N 59°30' E 024°57'3 5.4
2018-Feb-20 05:00N 59°32' E 024°55'5 9.8
2018-Feb-20 04:30N 59°36' E 024°49'4 8.0
2018-Feb-20 04:01N 59°36' E 024°41'5 9.7
2018-Feb-20 03:30N 59°32' E 024°44'4 8.3
2018-Feb-20 03:00N 59°30' E 024°37'3 6.3
2018-Feb-20 02:30N 59°29' E 024°31'0 0.0
2018-Feb-20 01:59N 59°29' E 024°31'0 0.0
2018-Feb-20 01:29N 59°29' E 024°31'0 0.0
2018-Feb-20 01:00N 59°29' E 024°31'0 0.0
2018-Feb-20 00:28N 59°29' E 024°31'0 0.0
2018-Feb-19 23:58N 59°29' E 024°31'0 0.1
2018-Feb-19 23:30N 59°29' E 024°31'2 3.8
2018-Feb-19 23:00N 59°31' E 024°32'1 1.0
2018-Feb-19 22:31N 59°31' E 024°31'0 0.0
2018-Feb-19 22:01N 59°31' E 024°31'0 0.0
2018-Feb-19 21:31N 59°31' E 024°31'0 0.0
2018-Feb-19 21:00N 59°31' E 024°31'0 0.0
2018-Feb-19 20:31N 59°31' E 024°31'0 0.0
2018-Feb-19 20:00N 59°31' E 024°31'0 0.0
2018-Feb-19 19:31N 59°31' E 024°31'0 0.0
2018-Feb-19 19:01N 59°31' E 024°31'0 0.0
2018-Feb-19 18:30N 59°31' E 024°31'0 0.0
2018-Feb-19 18:01N 59°31' E 024°31'0 0.7
2018-Feb-19 17:31N 59°31' E 024°31'1 1.4
2018-Feb-19 17:01N 59°32' E 024°30'0 1.0
2018-Feb-19 16:30N 59°32' E 024°30'0 0.0
2018-Feb-19 15:58N 59°32' E 024°30'0 0.0
2018-Feb-19 15:27N 59°32' E 024°30'0 0.1
2018-Feb-19 14:59N 59°32' E 024°30'0 0.1
2018-Feb-19 14:30N 59°32' E 024°30'0 0.0
2018-Feb-19 14:00N 59°32' E 024°30'0 0.1
2018-Feb-19 13:27N 59°32' E 024°30'0 0.0
2018-Feb-19 12:58N 59°32' E 024°30'0 0.0
2018-Feb-19 12:30N 59°32' E 024°30'0 0.0
2018-Feb-19 12:00N 59°32' E 024°30'0 0.0
2018-Feb-19 11:30N 59°32' E 024°30'0 0.0
2018-Feb-19 11:00N 59°32' E 024°30'0 0.0
2018-Feb-19 10:30N 59°32' E 024°30'0 0.0
2018-Feb-19 10:01N 59°32' E 024°30'0 0.0
2018-Feb-19 09:30N 59°32' E 024°30'0 0.0
2018-Feb-19 09:00N 59°32' E 024°30'0 0.0
2018-Feb-19 08:30N 59°32' E 024°30'0 0.0
2018-Feb-19 08:00N 59°32' E 024°30'0 0.0
2018-Feb-19 07:30N 59°32' E 024°30'0 0.0
2018-Feb-19 07:01N 59°32' E 024°30'0 0.0
2018-Feb-19 06:31N 59°32' E 024°30'0 0.0
2018-Feb-19 06:00N 59°32' E 024°30'0 0.0
2018-Feb-19 05:30N 59°32' E 024°30'0 0.1
2018-Feb-19 05:00N 59°32' E 024°30'0 0.5
2018-Feb-19 04:31N 59°31' E 024°30'3 5.2
2018-Feb-19 04:00N 59°31' E 024°35'3 5.9
2018-Feb-19 03:30N 59°32' E 024°41'4 7.8
2018-Feb-19 03:00N 59°36' E 024°40'4 7.2
2018-Feb-19 02:30N 59°38' E 024°46'5 9.6
2018-Feb-19 02:01N 59°34' E 024°53'5 9.1
2018-Feb-19 01:30N 59°30' E 024°58'1 1.7
2018-Feb-19 01:00N 59°30' E 024°57'0 0.0
2018-Feb-19 00:28N 59°30' E 024°57'0 0.0
2018-Feb-18 23:57N 59°30' E 024°57'0 0.0
2018-Feb-18 23:29N 59°30' E 024°57'0 0.0
2018-Feb-18 22:59N 59°30' E 024°57'0 0.0
2018-Feb-18 22:28N 59°30' E 024°57'0 0.0
2018-Feb-18 22:00N 59°30' E 024°57'0 0.0
2018-Feb-18 21:28N 59°30' E 024°57'0 0.0
2018-Feb-18 20:57N 59°30' E 024°57'0 0.0
2018-Feb-18 20:27N 59°30' E 024°57'0 0.0
2018-Feb-18 19:58N 59°30' E 024°57'0 0.0
2018-Feb-18 19:28N 59°30' E 024°57'0 0.0
2018-Feb-18 19:00N 59°30' E 024°57'0 0.0
2018-Feb-18 18:28N 59°30' E 024°57'0 0.0
2018-Feb-18 17:58N 59°30' E 024°57'0 0.0
2018-Feb-18 17:28N 59°30' E 024°57'0 0.0
2018-Feb-18 16:59N 59°30' E 024°57'0 0.0
2018-Feb-18 16:28N 59°30' E 024°57'0 0.0
2018-Feb-18 16:00N 59°30' E 024°57'0 0.0
2018-Feb-18 15:27N 59°30' E 024°57'0 0.0
2018-Feb-18 14:58N 59°30' E 024°57'0 0.0
2018-Feb-18 14:27N 59°30' E 024°57'0 0.0
2018-Feb-18 13:57N 59°30' E 024°57'0 0.0
2018-Feb-18 13:28N 59°30' E 024°57'0 0.0
2018-Feb-18 12:57N 59°30' E 024°57'0 0.0
2018-Feb-18 12:29N 59°30' E 024°57'0 0.0
2018-Feb-18 11:58N 59°30' E 024°57'0 0.0
2018-Feb-18 11:28N 59°30' E 024°57'0 0.0
2018-Feb-18 10:59N 59°30' E 024°57'0 0.0
2018-Feb-18 10:29N 59°30' E 024°57'0 0.0
2018-Feb-18 09:58N 59°30' E 024°57'0 0.0
2018-Feb-18 09:28N 59°30' E 024°57'0 0.0
2018-Feb-18 08:59N 59°30' E 024°57'0 0.0
2018-Feb-18 08:28N 59°30' E 024°57'0 0.0
2018-Feb-18 07:57N 59°30' E 024°57'0 0.0
2018-Feb-18 07:27N 59°30' E 024°57'0 0.0
2018-Feb-18 06:58N 59°30' E 024°57'0 0.0
2018-Feb-18 06:28N 59°30' E 024°57'0 0.2
2018-Feb-18 05:57N 59°30' E 024°56'0 0.1
2018-Feb-18 05:29N 59°30' E 024°56'0 0.0
2018-Feb-18 04:58N 59°30' E 024°56'0 0.0
2018-Feb-18 04:28N 59°30' E 024°56'0 0.0
2018-Feb-18 03:58N 59°30' E 024°56'0 0.0
2018-Feb-18 03:29N 59°30' E 024°56'0 0.0
2018-Feb-18 02:58N 59°30' E 024°56'0 0.0
2018-Feb-18 02:27N 59°30' E 024°56'0 0.0
2018-Feb-18 01:58N 59°30' E 024°56'0 0.0
2018-Feb-18 01:27N 59°30' E 024°56'0 0.0
2018-Feb-18 00:58N 59°30' E 024°56'0 0.0
2018-Feb-18 00:29N 59°30' E 024°56'0 0.0
2018-Feb-17 23:58N 59°30' E 024°56'0 0.0
2018-Feb-17 23:28N 59°30' E 024°56'0 0.0
2018-Feb-17 22:59N 59°30' E 024°56'0 0.0
2018-Feb-17 22:28N 59°30' E 024°56'0 0.0
2018-Feb-17 21:58N 59°30' E 024°56'0 0.0
2018-Feb-17 21:29N 59°30' E 024°56'0 0.0
2018-Feb-17 20:59N 59°30' E 024°56'0 0.0
2018-Feb-17 20:30N 59°30' E 024°56'0 0.0
2018-Feb-17 19:59N 59°30' E 024°56'0 0.0
2018-Feb-17 19:29N 59°30' E 024°56'0 0.0
2018-Feb-17 18:59N 59°30' E 024°56'0 0.0
2018-Feb-17 18:30N 59°30' E 024°56'0 0.0
2018-Feb-17 18:00N 59°30' E 024°56'0 0.0
2018-Feb-17 17:30N 59°30' E 024°56'0 0.0
2018-Feb-17 16:59N 59°30' E 024°56'0 0.0
2018-Feb-17 16:29N 59°30' E 024°56'0 0.0
2018-Feb-17 15:59N 59°30' E 024°56'0 0.0
2018-Feb-17 15:30N 59°30' E 024°56'0 0.0
2018-Feb-17 14:58N 59°30' E 024°56'0 0.0
2018-Feb-17 14:30N 59°30' E 024°56'0 0.0
2018-Feb-17 14:00N 59°30' E 024°56'0 0.0
2018-Feb-17 13:28N 59°30' E 024°56'0 0.0
2018-Feb-17 13:01N 59°30' E 024°56'0 0.0
2018-Feb-17 12:27N 59°30' E 024°56'0 0.1
2018-Feb-17 12:00N 59°30' E 024°57'0 0.2
2018-Feb-17 11:27N 59°30' E 024°57'0 0.0
2018-Feb-17 11:00N 59°30' E 024°57'0 0.0
2018-Feb-17 10:30N 59°30' E 024°57'0 0.0
2018-Feb-17 10:00N 59°30' E 024°57'0 0.0
2018-Feb-17 09:30N 59°30' E 024°57'0 0.0
2018-Feb-17 08:57N 59°30' E 024°57'0 0.0
2018-Feb-17 08:31N 59°30' E 024°57'0 0.0
2018-Feb-17 08:00N 59°30' E 024°57'0 0.0
2018-Feb-17 07:30N 59°30' E 024°57'0 0.0
2018-Feb-17 07:00N 59°30' E 024°57'0 0.0
2018-Feb-17 06:31N 59°30' E 024°57'0 0.0
2018-Feb-17 06:00N 59°30' E 024°57'0 0.0
2018-Feb-17 05:30N 59°30' E 024°57'0 0.0
2018-Feb-17 05:00N 59°30' E 024°57'0 0.0
2018-Feb-17 04:30N 59°30' E 024°57'0 0.0
2018-Feb-17 04:00N 59°30' E 024°57'0 0.0
2018-Feb-17 03:30N 59°30' E 024°57'0 0.0
2018-Feb-17 02:57N 59°30' E 024°57'0 0.0
2018-Feb-17 02:30N 59°30' E 024°57'0 0.0
2018-Feb-17 02:01N 59°30' E 024°57'0 0.0
2018-Feb-17 01:30N 59°30' E 024°57'0 0.0
2018-Feb-17 01:00N 59°30' E 024°57'0 0.0
2018-Feb-17 00:31N 59°30' E 024°57'0 0.0
2018-Feb-17 00:00N 59°30' E 024°57'0 0.0
2018-Feb-16 23:29N 59°30' E 024°57'0 0.0
2018-Feb-16 23:01N 59°30' E 024°57'0 0.1
2018-Feb-16 22:30N 59°30' E 024°57'3 5.9
2018-Feb-16 22:00N 59°33' E 024°55'4 8.9
2018-Feb-16 21:31N 59°36' E 024°49'0 0.1
2018-Feb-16 20:54N 59°36' E 024°48'0 0.0
2018-Feb-16 20:30N 59°36' E 024°48'0 0.0
2018-Feb-16 19:59N 59°36' E 024°48'0 0.0
2018-Feb-16 19:30N 59°36' E 024°48'0 0.0
2018-Feb-16 18:59N 59°36' E 024°48'0 0.0
2018-Feb-16 18:30N 59°36' E 024°48'1 1.2
2018-Feb-16 18:01N 59°35' E 024°49'0 0.0
2018-Feb-16 17:31N 59°35' E 024°49'0 0.0
2018-Feb-16 17:01N 59°35' E 024°49'0 0.0
2018-Feb-16 16:31N 59°35' E 024°49'0 0.1
2018-Feb-16 16:00N 59°35' E 024°49'0 0.1
2018-Feb-16 15:30N 59°35' E 024°49'0 0.0
2018-Feb-16 15:01N 59°35' E 024°49'0 0.1
2018-Feb-16 14:31N 59°35' E 024°49'0 0.0
2018-Feb-16 14:00N 59°35' E 024°49'0 0.1
2018-Feb-16 13:30N 59°35' E 024°49'0 0.1
2018-Feb-16 13:01N 59°35' E 024°49'0 0.1
2018-Feb-16 12:31N 59°35' E 024°49'0 0.0
2018-Feb-16 12:01N 59°35' E 024°49'0 0.0
2018-Feb-16 11:31N 59°35' E 024°49'1 1.3
2018-Feb-16 11:00N 59°35' E 024°50'0 0.0
2018-Feb-16 10:31N 59°35' E 024°50'0 0.0
2018-Feb-16 10:00N 59°35' E 024°50'0 0.0
2018-Feb-16 09:31N 59°35' E 024°50'1 2.5
2018-Feb-16 09:01N 59°34' E 024°52'5 9.5
2018-Feb-16 08:31N 59°30' E 024°58'1 1.5
2018-Feb-16 07:59N 59°30' E 024°56'0 0.0
2018-Feb-16 07:29N 59°30' E 024°56'0 0.0
2018-Feb-16 06:59N 59°30' E 024°56'0 0.0
2018-Feb-16 06:28N 59°30' E 024°56'0 0.0
2018-Feb-16 05:59N 59°30' E 024°56'0 0.0
2018-Feb-16 05:29N 59°30' E 024°56'0 0.0
2018-Feb-16 05:00N 59°30' E 024°56'0 0.0
2018-Feb-16 04:30N 59°30' E 024°56'0 0.0
2018-Feb-16 04:00N 59°30' E 024°56'0 0.0
2018-Feb-16 03:30N 59°30' E 024°56'0 0.0
2018-Feb-16 03:00N 59°30' E 024°56'0 0.0
2018-Feb-16 02:31N 59°30' E 024°56'0 0.0
2018-Feb-16 02:00N 59°30' E 024°56'0 0.0
2018-Feb-16 01:30N 59°30' E 024°56'2 3.1
2018-Feb-16 01:00N 59°31' E 024°57'510.6
2018-Feb-16 00:30N 59°35' E 024°50'4 8.9
2018-Feb-16 00:00N 59°37' E 024°41'510.8
2018-Feb-15 23:31N 59°31' E 024°44'510.3
2018-Feb-15 23:00N 59°30' E 024°34'2 4.7
2018-Feb-15 22:30N 59°32' E 024°31'0 0.0
2018-Feb-15 21:58N 59°32' E 024°31'0 0.0
2018-Feb-15 21:30N 59°32' E 024°31'0 0.0
2018-Feb-15 21:00N 59°32' E 024°31'0 0.1
2018-Feb-15 20:30N 59°32' E 024°30'1 2.1
2018-Feb-15 19:58N 59°31' E 024°30'0 0.1
2018-Feb-15 19:28N 59°31' E 024°30'0 0.0
2018-Feb-15 18:58N 59°31' E 024°30'0 0.0
2018-Feb-15 18:28N 59°31' E 024°30'0 0.0
2018-Feb-15 17:58N 59°31' E 024°30'0 0.0
2018-Feb-15 17:28N 59°31' E 024°30'0 0.0
2018-Feb-15 16:59N 59°31' E 024°30'0 0.0
2018-Feb-15 16:29N 59°31' E 024°30'0 0.0
2018-Feb-15 15:58N 59°31' E 024°30'0 0.0
2018-Feb-15 15:28N 59°31' E 024°30'0 0.4
2018-Feb-15 15:00N 59°31' E 024°30'2 3.6
2018-Feb-15 14:30N 59°29' E 024°32'0 0.0
2018-Feb-15 14:00N 59°29' E 024°32'0 0.0
2018-Feb-15 13:30N 59°29' E 024°32'0 0.0
2018-Feb-15 13:00N 59°29' E 024°32'0 0.0
2018-Feb-15 12:31N 59°29' E 024°32'0 0.0
2018-Feb-15 12:00N 59°29' E 024°32'0 0.9
2018-Feb-15 11:30N 59°29' E 024°31'0 0.1
2018-Feb-15 11:00N 59°29' E 024°31'0 0.0
2018-Feb-15 10:30N 59°29' E 024°31'0 0.0
2018-Feb-15 10:00N 59°29' E 024°31'0 0.0
2018-Feb-15 09:30N 59°29' E 024°31'0 0.0
2018-Feb-15 09:00N 59°29' E 024°31'1 2.6
2018-Feb-15 08:30N 59°30' E 024°33'5 9.4
2018-Feb-15 08:01N 59°33' E 024°39'5 9.2
2018-Feb-15 07:31N 59°38' E 024°43'510.1
2018-Feb-15 07:00N 59°35' E 024°51'510.3
2018-Feb-15 06:31N 59°31' E 024°57'1 2.4
2018-Feb-15 05:59N 59°30' E 024°57'0 0.0
2018-Feb-15 05:29N 59°30' E 024°57'0 0.0
2018-Feb-15 04:59N 59°30' E 024°57'0 0.0
2018-Feb-15 04:30N 59°30' E 024°57'0 0.0
2018-Feb-15 03:59N 59°30' E 024°57'0 0.0
2018-Feb-15 03:29N 59°30' E 024°57'0 0.0
2018-Feb-15 03:00N 59°30' E 024°57'0 0.0
2018-Feb-15 02:31N 59°30' E 024°57'0 0.0
2018-Feb-15 01:59N 59°30' E 024°57'0 0.0
2018-Feb-15 01:29N 59°30' E 024°57'0 0.0
2018-Feb-15 01:01N 59°30' E 024°57'0 0.0
2018-Feb-15 00:29N 59°30' E 024°57'0 0.0
2018-Feb-14 23:59N 59°30' E 024°57'0 0.0
2018-Feb-14 23:29N 59°30' E 024°57'0 0.0
2018-Feb-14 22:59N 59°30' E 024°57'0 0.0
2018-Feb-14 22:30N 59°30' E 024°57'0 0.0
2018-Feb-14 21:59N 59°30' E 024°57'0 0.0
2018-Feb-14 21:30N 59°30' E 024°57'0 0.0
2018-Feb-14 20:59N 59°30' E 024°57'0 0.0
2018-Feb-14 20:30N 59°30' E 024°57'0 0.0
2018-Feb-14 20:01N 59°30' E 024°57'0 0.0
2018-Feb-14 19:29N 59°30' E 024°57'0 0.0
2018-Feb-14 18:59N 59°30' E 024°57'0 0.0
2018-Feb-14 18:29N 59°30' E 024°57'0 0.0
2018-Feb-14 17:59N 59°30' E 024°57'0 0.0
2018-Feb-14 17:31N 59°30' E 024°57'0 0.0
2018-Feb-14 16:59N 59°30' E 024°57'0 0.0
2018-Feb-14 16:29N 59°30' E 024°57'0 0.0
2018-Feb-14 15:59N 59°30' E 024°57'0 0.0
2018-Feb-14 15:29N 59°30' E 024°57'0 0.0
2018-Feb-14 14:59N 59°30' E 024°57'0 0.0
2018-Feb-14 14:29N 59°30' E 024°57'0 0.0
2018-Feb-14 14:01N 59°30' E 024°57'0 0.0
2018-Feb-14 13:29N 59°30' E 024°57'0 0.0
2018-Feb-14 12:59N 59°30' E 024°57'0 0.0
2018-Feb-14 12:31N 59°30' E 024°57'0 0.0
2018-Feb-14 11:59N 59°30' E 024°57'0 0.3
2018-Feb-14 11:29N 59°30' E 024°56'0 0.0
2018-Feb-14 10:59N 59°30' E 024°56'0 0.0
2018-Feb-14 10:29N 59°30' E 024°56'0 0.0
2018-Feb-14 10:01N 59°30' E 024°56'0 0.0
2018-Feb-14 09:29N 59°30' E 024°56'0 0.0
2018-Feb-14 08:59N 59°30' E 024°56'0 0.0
2018-Feb-14 08:31N 59°30' E 024°56'0 0.2
2018-Feb-14 07:59N 59°30' E 024°57'0 0.0
2018-Feb-14 07:29N 59°30' E 024°57'0 0.0
2018-Feb-14 06:59N 59°30' E 024°57'0 0.0
2018-Feb-14 06:31N 59°30' E 024°57'0 0.0
2018-Feb-14 05:59N 59°30' E 024°57'0 0.0
2018-Feb-14 05:29N 59°30' E 024°57'0 0.0
2018-Feb-14 04:58N 59°30' E 024°57'0 0.0
2018-Feb-14 04:29N 59°30' E 024°57'0 0.0
2018-Feb-14 03:59N 59°30' E 024°57'0 0.0
2018-Feb-14 03:29N 59°30' E 024°57'0 0.0
2018-Feb-14 02:59N 59°30' E 024°57'0 0.0
2018-Feb-14 02:29N 59°30' E 024°57'0 0.0
2018-Feb-14 01:59N 59°30' E 024°57'0 0.0
2018-Feb-14 01:29N 59°30' E 024°57'0 0.0
2018-Feb-14 00:58N 59°30' E 024°57'0 0.9
2018-Feb-14 00:30N 59°30' E 024°57'1 1.2
2018-Feb-13 23:58N 59°29' E 024°58'0 0.0
2018-Feb-13 23:28N 59°29' E 024°58'0 0.0
2018-Feb-13 22:59N 59°29' E 024°58'0 0.0
2018-Feb-13 22:28N 59°29' E 024°58'0 0.0
2018-Feb-13 21:59N 59°29' E 024°58'0 0.0
2018-Feb-13 21:29N 59°29' E 024°58'0 0.0
2018-Feb-13 21:00N 59°29' E 024°58'0 0.0
2018-Feb-13 20:30N 59°29' E 024°58'1 1.6
2018-Feb-13 20:00N 59°30' E 024°57'0 0.2
2018-Feb-13 19:30N 59°30' E 024°57'0 0.0
2018-Feb-13 19:00N 59°30' E 024°57'0 0.0
2018-Feb-13 18:30N 59°30' E 024°57'1 2.7
2018-Feb-13 18:00N 59°31' E 024°57'510.1
2018-Feb-13 17:30N 59°35' E 024°51'2 3.1
2018-Feb-13 17:00N 59°36' E 024°48'0 0.0
2018-Feb-13 16:30N 59°36' E 024°48'0 0.0
2018-Feb-13 16:00N 59°36' E 024°48'0 0.0
2018-Feb-13 15:30N 59°36' E 024°48'0 0.0
2018-Feb-13 15:00N 59°36' E 024°48'0 0.0
2018-Feb-13 14:30N 59°36' E 024°48'0 0.0
2018-Feb-13 14:00N 59°36' E 024°48'0 0.0
2018-Feb-13 13:30N 59°36' E 024°48'0 0.0
2018-Feb-13 13:00N 59°36' E 024°48'0 0.0
2018-Feb-13 12:30N 59°36' E 024°48'0 0.0
2018-Feb-13 12:00N 59°36' E 024°48'0 0.0
2018-Feb-13 11:30N 59°36' E 024°48'0 0.0
2018-Feb-13 11:00N 59°36' E 024°48'0 0.0
2018-Feb-13 10:31N 59°36' E 024°48'0 0.0
2018-Feb-13 10:00N 59°36' E 024°48'0 0.0
2018-Feb-13 09:30N 59°36' E 024°48'0 0.0
2018-Feb-13 09:00N 59°36' E 024°48'0 0.0
2018-Feb-13 08:28N 59°36' E 024°48'4 7.9
2018-Feb-13 08:00N 59°33' E 024°54'4 7.6
2018-Feb-13 07:30N 59°30' E 024°57'0 0.3
2018-Feb-13 06:59N 59°30' E 024°56'0 0.0
2018-Feb-13 06:29N 59°30' E 024°56'0 0.0
2018-Feb-13 05:57N 59°30' E 024°56'0 0.0
2018-Feb-13 05:29N 59°30' E 024°56'0 0.0
2018-Feb-13 04:59N 59°30' E 024°56'0 0.0
2018-Feb-13 04:30N 59°30' E 024°56'0 0.0
2018-Feb-13 03:58N 59°30' E 024°56'0 0.0
2018-Feb-13 03:27N 59°30' E 024°56'0 0.0
2018-Feb-13 02:57N 59°30' E 024°56'0 0.0
2018-Feb-13 02:28N 59°30' E 024°56'0 0.0
2018-Feb-13 01:57N 59°30' E 024°56'0 0.0
2018-Feb-13 01:29N 59°30' E 024°56'0 0.0
2018-Feb-13 00:58N 59°30' E 024°56'0 0.0
2018-Feb-13 00:28N 59°30' E 024°56'0 0.0
2018-Feb-12 23:58N 59°30' E 024°56'0 0.0
2018-Feb-12 23:29N 59°30' E 024°56'0 0.0
2018-Feb-12 22:57N 59°30' E 024°56'0 0.0
2018-Feb-12 22:24N 59°30' E 024°56'0 0.0
2018-Feb-12 21:58N 59°30' E 024°56'0 0.0
2018-Feb-12 21:30N 59°30' E 024°56'0 0.0
2018-Feb-12 20:59N 59°30' E 024°56'0 0.0
2018-Feb-12 20:29N 59°30' E 024°56'0 0.0
2018-Feb-12 19:59N 59°30' E 024°56'0 0.0
2018-Feb-12 19:29N 59°30' E 024°56'0 0.0
2018-Feb-12 18:59N 59°30' E 024°56'0 0.0
2018-Feb-12 18:29N 59°30' E 024°56'0 0.0
2018-Feb-12 17:59N 59°30' E 024°56'0 0.0
2018-Feb-12 17:29N 59°30' E 024°56'0 0.0
2018-Feb-12 16:59N 59°30' E 024°56'0 0.0
2018-Feb-12 16:29N 59°30' E 024°56'0 0.0
2018-Feb-12 15:59N 59°30' E 024°56'0 0.2
2018-Feb-12 15:29N 59°30' E 024°57'1 1.3
2018-Feb-12 15:00N 59°30' E 024°58'0 0.0
2018-Feb-12 14:28N 59°30' E 024°58'0 0.0
2018-Feb-12 14:00N 59°30' E 024°58'0 0.0
2018-Feb-12 13:30N 59°30' E 024°58'0 0.0
2018-Feb-12 13:00N 59°30' E 024°58'0 0.0
2018-Feb-12 12:30N 59°30' E 024°58'0 0.0
2018-Feb-12 11:58N 59°30' E 024°58'0 0.0
2018-Feb-12 11:28N 59°30' E 024°58'0 0.0
2018-Feb-12 10:58N 59°30' E 024°58'0 0.0
2018-Feb-12 10:28N 59°30' E 024°58'0 0.0
2018-Feb-12 09:58N 59°30' E 024°58'0 0.0
2018-Feb-12 09:28N 59°30' E 024°58'0 0.0
2018-Feb-12 08:58N 59°30' E 024°58'1 1.3
2018-Feb-12 08:25N 59°30' E 024°56'0 0.0
2018-Feb-12 07:55N 59°30' E 024°56'0 0.0
2018-Feb-12 07:25N 59°30' E 024°56'0 0.0
2018-Feb-12 06:56N 59°30' E 024°56'0 0.0
2018-Feb-12 06:26N 59°30' E 024°56'0 0.0
2018-Feb-12 05:56N 59°30' E 024°56'0 0.0
2018-Feb-12 05:26N 59°30' E 024°56'0 0.0
2018-Feb-12 04:56N 59°30' E 024°56'0 0.0
2018-Feb-12 04:25N 59°30' E 024°56'0 0.0
2018-Feb-12 03:56N 59°30' E 024°56'0 0.0
2018-Feb-12 03:26N 59°30' E 024°56'0 0.0
2018-Feb-12 02:56N 59°30' E 024°56'0 0.0
2018-Feb-12 02:26N 59°30' E 024°56'0 0.0
2018-Feb-12 01:56N 59°30' E 024°56'0 0.0
2018-Feb-12 01:26N 59°30' E 024°56'0 0.0
2018-Feb-12 00:56N 59°30' E 024°56'0 0.0
2018-Feb-12 00:25N 59°30' E 024°56'0 0.0
2018-Feb-11 23:56N 59°30' E 024°56'0 0.0
2018-Feb-11 23:26N 59°30' E 024°56'0 0.0
2018-Feb-11 22:55N 59°30' E 024°56'0 0.0
2018-Feb-11 22:26N 59°30' E 024°56'0 0.0
2018-Feb-11 21:56N 59°30' E 024°56'0 0.0
2018-Feb-11 21:26N 59°30' E 024°56'0 0.0
2018-Feb-11 20:56N 59°30' E 024°56'0 0.0
2018-Feb-11 20:27N 59°30' E 024°56'0 0.0
2018-Feb-11 19:56N 59°30' E 024°56'0 0.0
2018-Feb-11 19:26N 59°30' E 024°56'0 0.0
2018-Feb-11 18:57N 59°30' E 024°56'0 0.0
2018-Feb-11 18:27N 59°30' E 024°56'0 0.0
2018-Feb-11 17:51N 59°30' E 024°56'0 0.0
2018-Feb-11 17:27N 59°30' E 024°56'0 0.0
2018-Feb-11 16:57N 59°30' E 024°56'0 0.0
2018-Feb-11 16:28N 59°30' E 024°56'0 0.0
2018-Feb-11 15:59N 59°30' E 024°56'0 0.0
2018-Feb-11 15:28N 59°30' E 024°56'0 0.0
2018-Feb-11 15:01N 59°30' E 024°56'0 0.0
2018-Feb-11 14:31N 59°30' E 024°56'0 0.0
2018-Feb-11 14:00N 59°30' E 024°56'0 0.0
2018-Feb-11 13:31N 59°30' E 024°56'0 0.0
2018-Feb-11 13:01N 59°30' E 024°56'0 0.0
2018-Feb-11 12:30N 59°30' E 024°56'0 0.0
2018-Feb-11 12:00N 59°30' E 024°56'0 0.0
2018-Feb-11 11:31N 59°30' E 024°56'0 0.0
2018-Feb-11 11:01N 59°30' E 024°56'0 0.1
2018-Feb-11 10:31N 59°30' E 024°56'2 4.8
2018-Feb-11 10:00N 59°32' E 024°56'4 8.1
2018-Feb-11 09:31N 59°35' E 024°50'0 0.1
2018-Feb-11 08:59N 59°35' E 024°50'0 0.0
2018-Feb-11 08:28N 59°35' E 024°50'0 0.0
2018-Feb-11 07:59N 59°35' E 024°50'0 0.0
2018-Feb-11 07:29N 59°35' E 024°50'0 0.0
2018-Feb-11 06:59N 59°35' E 024°50'0 0.0
2018-Feb-11 06:29N 59°35' E 024°50'0 0.0
2018-Feb-11 05:59N 59°35' E 024°50'0 0.0
2018-Feb-11 05:29N 59°35' E 024°50'0 0.0
2018-Feb-11 04:59N 59°35' E 024°50'0 0.0
2018-Feb-11 04:29N 59°35' E 024°50'0 0.0
2018-Feb-11 04:01N 59°35' E 024°50'1 1.0
2018-Feb-11 03:30N 59°35' E 024°49'0 0.1
2018-Feb-11 03:00N 59°35' E 024°48'0 0.0
2018-Feb-11 02:30N 59°35' E 024°48'0 0.0
2018-Feb-11 02:00N 59°35' E 024°48'0 0.0
2018-Feb-11 01:30N 59°35' E 024°48'0 0.0
2018-Feb-11 00:58N 59°35' E 024°48'0 0.0
2018-Feb-11 00:28N 59°35' E 024°48'0 0.0
2018-Feb-10 23:58N 59°35' E 024°48'0 0.0
2018-Feb-10 23:28N 59°35' E 024°48'0 0.0
2018-Feb-10 22:58N 59°35' E 024°48'0 0.0
2018-Feb-10 22:28N 59°35' E 024°48'0 0.0
2018-Feb-10 21:58N 59°35' E 024°48'0 0.0
2018-Feb-10 21:28N 59°35' E 024°48'0 0.0
2018-Feb-10 20:58N 59°35' E 024°48'0 0.0
2018-Feb-10 20:28N 59°35' E 024°48'0 0.0
2018-Feb-10 19:58N 59°35' E 024°48'0 0.0
2018-Feb-10 19:28N 59°35' E 024°48'0 0.0
2018-Feb-10 18:55N 59°35' E 024°48'0 0.0
2018-Feb-10 18:28N 59°35' E 024°48'0 0.0
2018-Feb-10 17:58N 59°35' E 024°48'0 0.0
2018-Feb-10 17:28N 59°35' E 024°48'0 0.0
2018-Feb-10 16:58N 59°35' E 024°48'0 0.0
2018-Feb-10 16:28N 59°35' E 024°48'0 0.0
2018-Feb-10 16:00N 59°35' E 024°48'0 0.0
2018-Feb-10 15:30N 59°35' E 024°48'0 0.0
2018-Feb-10 15:00N 59°35' E 024°48'0 0.0
2018-Feb-10 14:30N 59°35' E 024°48'0 0.0
2018-Feb-10 14:00N 59°35' E 024°48'0 0.0
2018-Feb-10 13:30N 59°35' E 024°48'0 0.0
2018-Feb-10 13:00N 59°35' E 024°48'0 0.0
2018-Feb-10 12:30N 59°35' E 024°48'0 0.0
2018-Feb-10 12:00N 59°35' E 024°48'0 0.0
2018-Feb-10 11:29N 59°35' E 024°48'0 0.0
2018-Feb-10 11:00N 59°35' E 024°48'0 0.0
2018-Feb-10 10:30N 59°35' E 024°48'0 0.0
2018-Feb-10 10:00N 59°35' E 024°48'0 0.0
2018-Feb-10 09:30N 59°35' E 024°48'0 0.0
2018-Feb-10 09:00N 59°35' E 024°48'0 0.0
2018-Feb-10 08:30N 59°35' E 024°48'0 0.0
2018-Feb-10 08:00N 59°35' E 024°48'0 0.0
2018-Feb-10 07:30N 59°35' E 024°48'0 0.0
2018-Feb-10 07:00N 59°35' E 024°48'0 0.0
2018-Feb-10 06:30N 59°35' E 024°48'0 0.0
2018-Feb-10 06:00N 59°35' E 024°48'  
Track history (hours):
 
Tides and Currents Weather Stations Pressure Air Temp Water Temp Dewpoint Dewpoint Depression Visibility Wind Speed Wind Dir Waves Ship Positions

Viimsi

Last reported at 2018-Feb-20 05:31 UTC. Time now 2018-Feb-20 05:52 UTC.
Position N 59°30' E 024°57'.

Length 77 m; draft 5 m.

Type: Ship. MMSI: 276297000.

Date/timePositionNaut miles runAvg speedWind from/ knotsBaromVisibWave heightAir tempDewpointWater temp
2018-Feb-20 05:31N 59°30' E 024°57'3 5.4
2018-Feb-20 05:00N 59°32' E 024°55'5 9.8
2018-Feb-20 04:30N 59°36' E 024°49'4 8.0
2018-Feb-20 04:01N 59°36' E 024°41'5 9.7
2018-Feb-20 03:30N 59°32' E 024°44'4 8.3
2018-Feb-20 03:00N 59°30' E 024°37'3 6.3
2018-Feb-20 02:30N 59°29' E 024°31'0 0.0
2018-Feb-20 01:59N 59°29' E 024°31'0 0.0
2018-Feb-20 01:29N 59°29' E 024°31'0 0.0
2018-Feb-20 01:00N 59°29' E 024°31'0 0.0
2018-Feb-20 00:28N 59°29' E 024°31'0 0.0
2018-Feb-19 23:58N 59°29' E 024°31'0 0.1
2018-Feb-19 23:30N 59°29' E 024°31'2 3.8
2018-Feb-19 23:00N 59°31' E 024°32'1 1.0
2018-Feb-19 22:31N 59°31' E 024°31'0 0.0
2018-Feb-19 22:01N 59°31' E 024°31'0 0.0
2018-Feb-19 21:31N 59°31' E 024°31'0 0.0
2018-Feb-19 21:00N 59°31' E 024°31'0 0.0
2018-Feb-19 20:31N 59°31' E 024°31'0 0.0
2018-Feb-19 20:00N 59°31' E 024°31'0 0.0
2018-Feb-19 19:31N 59°31' E 024°31'0 0.0
2018-Feb-19 19:01N 59°31' E 024°31'0 0.0
2018-Feb-19 18:30N 59°31' E 024°31'0 0.0
2018-Feb-19 18:01N 59°31' E 024°31'0 0.7
2018-Feb-19 17:31N 59°31' E 024°31'1 1.4
2018-Feb-19 17:01N 59°32' E 024°30'0 1.0
2018-Feb-19 16:30N 59°32' E 024°30'0 0.0
2018-Feb-19 15:58N 59°32' E 024°30'0 0.0
2018-Feb-19 15:27N 59°32' E 024°30'0 0.1
2018-Feb-19 14:59N 59°32' E 024°30'0 0.1
2018-Feb-19 14:30N 59°32' E 024°30'0 0.0
2018-Feb-19 14:00N 59°32' E 024°30'0 0.1
2018-Feb-19 13:27N 59°32' E 024°30'0 0.0
2018-Feb-19 12:58N 59°32' E 024°30'0 0.0
2018-Feb-19 12:30N 59°32' E 024°30'0 0.0
2018-Feb-19 12:00N 59°32' E 024°30'0 0.0
2018-Feb-19 11:30N 59°32' E 024°30'0 0.0
2018-Feb-19 11:00N 59°32' E 024°30'0 0.0
2018-Feb-19 10:30N 59°32' E 024°30'0 0.0
2018-Feb-19 10:01N 59°32' E 024°30'0 0.0
2018-Feb-19 09:30N 59°32' E 024°30'0 0.0
2018-Feb-19 09:00N 59°32' E 024°30'0 0.0
2018-Feb-19 08:30N 59°32' E 024°30'0 0.0
2018-Feb-19 08:00N 59°32' E 024°30'0 0.0
2018-Feb-19 07:30N 59°32' E 024°30'0 0.0
2018-Feb-19 07:01N 59°32' E 024°30'0 0.0
2018-Feb-19 06:31N 59°32' E 024°30'0 0.0
2018-Feb-19 06:00N 59°32' E 024°30'0 0.0
2018-Feb-19 05:30N 59°32' E 024°30'0 0.1
2018-Feb-19 05:00N 59°32' E 024°30'0 0.5
2018-Feb-19 04:31N 59°31' E 024°30'3 5.2
2018-Feb-19 04:00N 59°31' E 024°35'3 5.9
2018-Feb-19 03:30N 59°32' E 024°41'4 7.8
2018-Feb-19 03:00N 59°36' E 024°40'4 7.2
2018-Feb-19 02:30N 59°38' E 024°46'5 9.6
2018-Feb-19 02:01N 59°34' E 024°53'5 9.1
2018-Feb-19 01:30N 59°30' E 024°58'1 1.7
2018-Feb-19 01:00N 59°30' E 024°57'0 0.0
2018-Feb-19 00:28N 59°30' E 024°57'0 0.0
2018-Feb-18 23:57N 59°30' E 024°57'0 0.0
2018-Feb-18 23:29N 59°30' E 024°57'0 0.0
2018-Feb-18 22:59N 59°30' E 024°57'0 0.0
2018-Feb-18 22:28N 59°30' E 024°57'0 0.0
2018-Feb-18 22:00N 59°30' E 024°57'0 0.0
2018-Feb-18 21:28N 59°30' E 024°57'0 0.0
2018-Feb-18 20:57N 59°30' E 024°57'0 0.0
2018-Feb-18 20:27N 59°30' E 024°57'0 0.0
2018-Feb-18 19:58N 59°30' E 024°57'0 0.0
2018-Feb-18 19:28N 59°30' E 024°57'0 0.0
2018-Feb-18 19:00N 59°30' E 024°57'0 0.0
2018-Feb-18 18:28N 59°30' E 024°57'0 0.0
2018-Feb-18 17:58N 59°30' E 024°57'0 0.0
2018-Feb-18 17:28N 59°30' E 024°57'0 0.0
2018-Feb-18 16:59N 59°30' E 024°57'0 0.0
2018-Feb-18 16:28N 59°30' E 024°57'0 0.0
2018-Feb-18 16:00N 59°30' E 024°57'0 0.0
2018-Feb-18 15:27N 59°30' E 024°57'0 0.0
2018-Feb-18 14:58N 59°30' E 024°57'0 0.0
2018-Feb-18 14:27N 59°30' E 024°57'0 0.0
2018-Feb-18 13:57N 59°30' E 024°57'0 0.0
2018-Feb-18 13:28N 59°30' E 024°57'0 0.0
2018-Feb-18 12:57N 59°30' E 024°57'0 0.0
2018-Feb-18 12:29N 59°30' E 024°57'0 0.0
2018-Feb-18 11:58N 59°30' E 024°57'0 0.0
2018-Feb-18 11:28N 59°30' E 024°57'0 0.0
2018-Feb-18 10:59N 59°30' E 024°57'0 0.0
2018-Feb-18 10:29N 59°30' E 024°57'0 0.0
2018-Feb-18 09:58N 59°30' E 024°57'0 0.0
2018-Feb-18 09:28N 59°30' E 024°57'0 0.0
2018-Feb-18 08:59N 59°30' E 024°57'0 0.0
2018-Feb-18 08:28N 59°30' E 024°57'0 0.0
2018-Feb-18 07:57N 59°30' E 024°57'0 0.0
2018-Feb-18 07:27N 59°30' E 024°57'0 0.0
2018-Feb-18 06:58N 59°30' E 024°57'0 0.0
2018-Feb-18 06:28N 59°30' E 024°57'0 0.2
2018-Feb-18 05:57N 59°30' E 024°56'0 0.1
2018-Feb-18 05:29N 59°30' E 024°56'0 0.0
2018-Feb-18 04:58N 59°30' E 024°56'0 0.0
2018-Feb-18 04:28N 59°30' E 024°56'0 0.0
2018-Feb-18 03:58N 59°30' E 024°56'0 0.0
2018-Feb-18 03:29N 59°30' E 024°56'0 0.0
2018-Feb-18 02:58N 59°30' E 024°56'0 0.0
2018-Feb-18 02:27N 59°30' E 024°56'0 0.0
2018-Feb-18 01:58N 59°30' E 024°56'0 0.0
2018-Feb-18 01:27N 59°30' E 024°56'0 0.0
2018-Feb-18 00:58N 59°30' E 024°56'0 0.0
2018-Feb-18 00:29N 59°30' E 024°56'0 0.0
2018-Feb-17 23:58N 59°30' E 024°56'0 0.0
2018-Feb-17 23:28N 59°30' E 024°56'0 0.0
2018-Feb-17 22:59N 59°30' E 024°56'0 0.0
2018-Feb-17 22:28N 59°30' E 024°56'0 0.0
2018-Feb-17 21:58N 59°30' E 024°56'0 0.0
2018-Feb-17 21:29N 59°30' E 024°56'0 0.0
2018-Feb-17 20:59N 59°30' E 024°56'0 0.0
2018-Feb-17 20:30N 59°30' E 024°56'0 0.0
2018-Feb-17 19:59N 59°30' E 024°56'0 0.0
2018-Feb-17 19:29N 59°30' E 024°56'0 0.0
2018-Feb-17 18:59N 59°30' E 024°56'0 0.0
2018-Feb-17 18:30N 59°30' E 024°56'0 0.0
2018-Feb-17 18:00N 59°30' E 024°56'0 0.0
2018-Feb-17 17:30N 59°30' E 024°56'0 0.0
2018-Feb-17 16:59N 59°30' E 024°56'0 0.0
2018-Feb-17 16:29N 59°30' E 024°56'0 0.0
2018-Feb-17 15:59N 59°30' E 024°56'0 0.0
2018-Feb-17 15:30N 59°30' E 024°56'0 0.0
2018-Feb-17 14:58N 59°30' E 024°56'0 0.0
2018-Feb-17 14:30N 59°30' E 024°56'0 0.0
2018-Feb-17 14:00N 59°30' E 024°56'0 0.0
2018-Feb-17 13:28N 59°30' E 024°56'0 0.0
2018-Feb-17 13:01N 59°30' E 024°56'0 0.0
2018-Feb-17 12:27N 59°30' E 024°56'0 0.1
2018-Feb-17 12:00N 59°30' E 024°57'0 0.2
2018-Feb-17 11:27N 59°30' E 024°57'0 0.0
2018-Feb-17 11:00N 59°30' E 024°57'0 0.0
2018-Feb-17 10:30N 59°30' E 024°57'0 0.0
2018-Feb-17 10:00N 59°30' E 024°57'0 0.0
2018-Feb-17 09:30N 59°30' E 024°57'0 0.0
2018-Feb-17 08:57N 59°30' E 024°57'0 0.0
2018-Feb-17 08:31N 59°30' E 024°57'0 0.0
2018-Feb-17 08:00N 59°30' E 024°57'0 0.0
2018-Feb-17 07:30N 59°30' E 024°57'0 0.0
2018-Feb-17 07:00N 59°30' E 024°57'0 0.0
2018-Feb-17 06:31N 59°30' E 024°57'0 0.0
2018-Feb-17 06:00N 59°30' E 024°57'0 0.0
2018-Feb-17 05:30N 59°30' E 024°57'0 0.0
2018-Feb-17 05:00N 59°30' E 024°57'0 0.0
2018-Feb-17 04:30N 59°30' E 024°57'0 0.0
2018-Feb-17 04:00N 59°30' E 024°57'0 0.0
2018-Feb-17 03:30N 59°30' E 024°57'0 0.0
2018-Feb-17 02:57N 59°30' E 024°57'0 0.0
2018-Feb-17 02:30N 59°30' E 024°57'0 0.0
2018-Feb-17 02:01N 59°30' E 024°57'0 0.0
2018-Feb-17 01:30N 59°30' E 024°57'0 0.0
2018-Feb-17 01:00N 59°30' E 024°57'0 0.0
2018-Feb-17 00:31N 59°30' E 024°57'0 0.0
2018-Feb-17 00:00N 59°30' E 024°57'0 0.0
2018-Feb-16 23:29N 59°30' E 024°57'0 0.0
2018-Feb-16 23:01N 59°30' E 024°57'0 0.1
2018-Feb-16 22:30N 59°30' E 024°57'3 5.9
2018-Feb-16 22:00N 59°33' E 024°55'4 8.9
2018-Feb-16 21:31N 59°36' E 024°49'0 0.1
2018-Feb-16 20:54N 59°36' E 024°48'0 0.0
2018-Feb-16 20:30N 59°36' E 024°48'0 0.0
2018-Feb-16 19:59N 59°36' E 024°48'0 0.0
2018-Feb-16 19:30N 59°36' E 024°48'0 0.0
2018-Feb-16 18:59N 59°36' E 024°48'0 0.0
2018-Feb-16 18:30N 59°36' E 024°48'1 1.2
2018-Feb-16 18:01N 59°35' E 024°49'0 0.0
2018-Feb-16 17:31N 59°35' E 024°49'0 0.0
2018-Feb-16 17:01N 59°35' E 024°49'0 0.0
2018-Feb-16 16:31N 59°35' E 024°49'0 0.1
2018-Feb-16 16:00N 59°35' E 024°49'0 0.1
2018-Feb-16 15:30N 59°35' E 024°49'0 0.0
2018-Feb-16 15:01N 59°35' E 024°49'0 0.1
2018-Feb-16 14:31N 59°35' E 024°49'0 0.0
2018-Feb-16 14:00N 59°35' E 024°49'0 0.1
2018-Feb-16 13:30N 59°35' E 024°49'0 0.1
2018-Feb-16 13:01N 59°35' E 024°49'0 0.1
2018-Feb-16 12:31N 59°35' E 024°49'0 0.0
2018-Feb-16 12:01N 59°35' E 024°49'0 0.0
2018-Feb-16 11:31N 59°35' E 024°49'1 1.3
2018-Feb-16 11:00N 59°35' E 024°50'0 0.0
2018-Feb-16 10:31N 59°35' E 024°50'0 0.0
2018-Feb-16 10:00N 59°35' E 024°50'0 0.0
2018-Feb-16 09:31N 59°35' E 024°50'1 2.5
2018-Feb-16 09:01N 59°34' E 024°52'5 9.5
2018-Feb-16 08:31N 59°30' E 024°58'1 1.5
2018-Feb-16 07:59N 59°30' E 024°56'0 0.0
2018-Feb-16 07:29N 59°30' E 024°56'0 0.0
2018-Feb-16 06:59N 59°30' E 024°56'0 0.0
2018-Feb-16 06:28N 59°30' E 024°56'0 0.0
2018-Feb-16 05:59N 59°30' E 024°56'0 0.0
2018-Feb-16 05:29N 59°30' E 024°56'0 0.0
2018-Feb-16 05:00N 59°30' E 024°56'0 0.0
2018-Feb-16 04:30N 59°30' E 024°56'0 0.0
2018-Feb-16 04:00N 59°30' E 024°56'0 0.0
2018-Feb-16 03:30N 59°30' E 024°56'0 0.0
2018-Feb-16 03:00N 59°30' E 024°56'0 0.0
2018-Feb-16 02:31N 59°30' E 024°56'0 0.0
2018-Feb-16 02:00N 59°30' E 024°56'0 0.0
2018-Feb-16 01:30N 59°30' E 024°56'2 3.1
2018-Feb-16 01:00N 59°31' E 024°57'510.6
2018-Feb-16 00:30N 59°35' E 024°50'4 8.9
2018-Feb-16 00:00N 59°37' E 024°41'510.8
2018-Feb-15 23:31N 59°31' E 024°44'510.3
2018-Feb-15 23:00N 59°30' E 024°34'2 4.7
2018-Feb-15 22:30N 59°32' E 024°31'0 0.0
2018-Feb-15 21:58N 59°32' E 024°31'0 0.0
2018-Feb-15 21:30N 59°32' E 024°31'0 0.0
2018-Feb-15 21:00N 59°32' E 024°31'0 0.1
2018-Feb-15 20:30N 59°32' E 024°30'1 2.1
2018-Feb-15 19:58N 59°31' E 024°30'0 0.1
2018-Feb-15 19:28N 59°31' E 024°30'0 0.0
2018-Feb-15 18:58N 59°31' E 024°30'0 0.0
2018-Feb-15 18:28N 59°31' E 024°30'0 0.0
2018-Feb-15 17:58N 59°31' E 024°30'0 0.0
2018-Feb-15 17:28N 59°31' E 024°30'0 0.0
2018-Feb-15 16:59N 59°31' E 024°30'0 0.0
2018-Feb-15 16:29N 59°31' E 024°30'0 0.0
2018-Feb-15 15:58N 59°31' E 024°30'0 0.0
2018-Feb-15 15:28N 59°31' E 024°30'0 0.4
2018-Feb-15 15:00N 59°31' E 024°30'2 3.6
2018-Feb-15 14:30N 59°29' E 024°32'0 0.0
2018-Feb-15 14:00N 59°29' E 024°32'0 0.0
2018-Feb-15 13:30N 59°29' E 024°32'0 0.0
2018-Feb-15 13:00N 59°29' E 024°32'0 0.0
2018-Feb-15 12:31N 59°29' E 024°32'0 0.0
2018-Feb-15 12:00N 59°29' E 024°32'0 0.9
2018-Feb-15 11:30N 59°29' E 024°31'0 0.1
2018-Feb-15 11:00N 59°29' E 024°31'0 0.0
2018-Feb-15 10:30N 59°29' E 024°31'0 0.0
2018-Feb-15 10:00N 59°29' E 024°31'0 0.0
2018-Feb-15 09:30N 59°29' E 024°31'0 0.0
2018-Feb-15 09:00N 59°29' E 024°31'1 2.6
2018-Feb-15 08:30N 59°30' E 024°33'5 9.4
2018-Feb-15 08:01N 59°33' E 024°39'5 9.2
2018-Feb-15 07:31N 59°38' E 024°43'510.1
2018-Feb-15 07:00N 59°35' E 024°51'510.3
2018-Feb-15 06:31N 59°31' E 024°57'1 2.4
2018-Feb-15 05:59N 59°30' E 024°57'0 0.0
2018-Feb-15 05:29N 59°30' E 024°57'0 0.0
2018-Feb-15 04:59N 59°30' E 024°57'0 0.0
2018-Feb-15 04:30N 59°30' E 024°57'0 0.0
2018-Feb-15 03:59N 59°30' E 024°57'0 0.0
2018-Feb-15 03:29N 59°30' E 024°57'0 0.0
2018-Feb-15 03:00N 59°30' E 024°57'0 0.0
2018-Feb-15 02:31N 59°30' E 024°57'0 0.0
2018-Feb-15 01:59N 59°30' E 024°57'0 0.0
2018-Feb-15 01:29N 59°30' E 024°57'0 0.0
2018-Feb-15 01:01N 59°30' E 024°57'0 0.0
2018-Feb-15 00:29N 59°30' E 024°57'0 0.0
2018-Feb-14 23:59N 59°30' E 024°57'0 0.0
2018-Feb-14 23:29N 59°30' E 024°57'0 0.0
2018-Feb-14 22:59N 59°30' E 024°57'0 0.0
2018-Feb-14 22:30N 59°30' E 024°57'0 0.0
2018-Feb-14 21:59N 59°30' E 024°57'0 0.0
2018-Feb-14 21:30N 59°30' E 024°57'0 0.0
2018-Feb-14 20:59N 59°30' E 024°57'0 0.0
2018-Feb-14 20:30N 59°30' E 024°57'0 0.0
2018-Feb-14 20:01N 59°30' E 024°57'0 0.0
2018-Feb-14 19:29N 59°30' E 024°57'0 0.0
2018-Feb-14 18:59N 59°30' E 024°57'0 0.0
2018-Feb-14 18:29N 59°30' E 024°57'0 0.0
2018-Feb-14 17:59N 59°30' E 024°57'0 0.0
2018-Feb-14 17:31N 59°30' E 024°57'0 0.0
2018-Feb-14 16:59N 59°30' E 024°57'0 0.0
2018-Feb-14 16:29N 59°30' E 024°57'0 0.0
2018-Feb-14 15:59N 59°30' E 024°57'0 0.0
2018-Feb-14 15:29N 59°30' E 024°57'0 0.0
2018-Feb-14 14:59N 59°30' E 024°57'0 0.0
2018-Feb-14 14:29N 59°30' E 024°57'0 0.0
2018-Feb-14 14:01N 59°30' E 024°57'0 0.0
2018-Feb-14 13:29N 59°30' E 024°57'0 0.0
2018-Feb-14 12:59N 59°30' E 024°57'0 0.0
2018-Feb-14 12:31N 59°30' E 024°57'0 0.0
2018-Feb-14 11:59N 59°30' E 024°57'0 0.3
2018-Feb-14 11:29N 59°30' E 024°56'0 0.0
2018-Feb-14 10:59N 59°30' E 024°56'0 0.0
2018-Feb-14 10:29N 59°30' E 024°56'0 0.0
2018-Feb-14 10:01N 59°30' E 024°56'0 0.0
2018-Feb-14 09:29N 59°30' E 024°56'0 0.0
2018-Feb-14 08:59N 59°30' E 024°56'0 0.0
2018-Feb-14 08:31N 59°30' E 024°56'0 0.2
2018-Feb-14 07:59N 59°30' E 024°57'0 0.0
2018-Feb-14 07:29N 59°30' E 024°57'0 0.0
2018-Feb-14 06:59N 59°30' E 024°57'0 0.0
2018-Feb-14 06:31N 59°30' E 024°57'0 0.0
2018-Feb-14 05:59N 59°30' E 024°57'0 0.0
2018-Feb-14 05:29N 59°30' E 024°57'0 0.0
2018-Feb-14 04:58N 59°30' E 024°57'0 0.0
2018-Feb-14 04:29N 59°30' E 024°57'0 0.0
2018-Feb-14 03:59N 59°30' E 024°57'0 0.0
2018-Feb-14 03:29N 59°30' E 024°57'0 0.0
2018-Feb-14 02:59N 59°30' E 024°57'0 0.0
2018-Feb-14 02:29N 59°30' E 024°57'0 0.0
2018-Feb-14 01:59N 59°30' E 024°57'0 0.0
2018-Feb-14 01:29N 59°30' E 024°57'0 0.0
2018-Feb-14 00:58N 59°30' E 024°57'0 0.9
2018-Feb-14 00:30N 59°30' E 024°57'1 1.2
2018-Feb-13 23:58N 59°29' E 024°58'0 0.0
2018-Feb-13 23:28N 59°29' E 024°58'0 0.0
2018-Feb-13 22:59N 59°29' E 024°58'0 0.0
2018-Feb-13 22:28N 59°29' E 024°58'0 0.0
2018-Feb-13 21:59N 59°29' E 024°58'0 0.0
2018-Feb-13 21:29N 59°29' E 024°58'0 0.0
2018-Feb-13 21:00N 59°29' E 024°58'0 0.0
2018-Feb-13 20:30N 59°29' E 024°58'1 1.6
2018-Feb-13 20:00N 59°30' E 024°57'0 0.2
2018-Feb-13 19:30N 59°30' E 024°57'0 0.0
2018-Feb-13 19:00N 59°30' E 024°57'0 0.0
2018-Feb-13 18:30N 59°30' E 024°57'1 2.7
2018-Feb-13 18:00N 59°31' E 024°57'510.1
2018-Feb-13 17:30N 59°35' E 024°51'2 3.1
2018-Feb-13 17:00N 59°36' E 024°48'0 0.0
2018-Feb-13 16:30N 59°36' E 024°48'0 0.0
2018-Feb-13 16:00N 59°36' E 024°48'0 0.0
2018-Feb-13 15:30N 59°36' E 024°48'0 0.0
2018-Feb-13 15:00N 59°36' E 024°48'0 0.0
2018-Feb-13 14:30N 59°36' E 024°48'0 0.0
2018-Feb-13 14:00N 59°36' E 024°48'0 0.0
2018-Feb-13 13:30N 59°36' E 024°48'0 0.0
2018-Feb-13 13:00N 59°36' E 024°48'0 0.0
2018-Feb-13 12:30N 59°36' E 024°48'0 0.0
2018-Feb-13 12:00N 59°36' E 024°48'0 0.0
2018-Feb-13 11:30N 59°36' E 024°48'0 0.0
2018-Feb-13 11:00N 59°36' E 024°48'0 0.0
2018-Feb-13 10:31N 59°36' E 024°48'0 0.0
2018-Feb-13 10:00N 59°36' E 024°48'0 0.0
2018-Feb-13 09:30N 59°36' E 024°48'0 0.0
2018-Feb-13 09:00N 59°36' E 024°48'0 0.0
2018-Feb-13 08:28N 59°36' E 024°48'4 7.9
2018-Feb-13 08:00N 59°33' E 024°54'4 7.6
2018-Feb-13 07:30N 59°30' E 024°57'0 0.3
2018-Feb-13 06:59N 59°30' E 024°56'0 0.0
2018-Feb-13 06:29N 59°30' E 024°56'0 0.0
2018-Feb-13 05:57N 59°30' E 024°56'0 0.0
2018-Feb-13 05:29N 59°30' E 024°56'0 0.0
2018-Feb-13 04:59N 59°30' E 024°56'0 0.0
2018-Feb-13 04:30N 59°30' E 024°56'0 0.0
2018-Feb-13 03:58N 59°30' E 024°56'0 0.0
2018-Feb-13 03:27N 59°30' E 024°56'0 0.0
2018-Feb-13 02:57N 59°30' E 024°56'0 0.0
2018-Feb-13 02:28N 59°30' E 024°56'0 0.0
2018-Feb-13 01:57N 59°30' E 024°56'0 0.0
2018-Feb-13 01:29N 59°30' E 024°56'0 0.0
2018-Feb-13 00:58N 59°30' E 024°56'0 0.0
2018-Feb-13 00:28N 59°30' E 024°56'0 0.0
2018-Feb-12 23:58N 59°30' E 024°56'0 0.0
2018-Feb-12 23:29N 59°30' E 024°56'0 0.0
2018-Feb-12 22:57N 59°30' E 024°56'0 0.0
2018-Feb-12 22:24N 59°30' E 024°56'0 0.0
2018-Feb-12 21:58N 59°30' E 024°56'0 0.0
2018-Feb-12 21:30N 59°30' E 024°56'0 0.0
2018-Feb-12 20:59N 59°30' E 024°56'0 0.0
2018-Feb-12 20:29N 59°30' E 024°56'0 0.0
2018-Feb-12 19:59N 59°30' E 024°56'0 0.0
2018-Feb-12 19:29N 59°30' E 024°56'0 0.0
2018-Feb-12 18:59N 59°30' E 024°56'0 0.0
2018-Feb-12 18:29N 59°30' E 024°56'0 0.0
2018-Feb-12 17:59N 59°30' E 024°56'0 0.0
2018-Feb-12 17:29N 59°30' E 024°56'0 0.0
2018-Feb-12 16:59N 59°30' E 024°56'0 0.0
2018-Feb-12 16:29N 59°30' E 024°56'0 0.0
2018-Feb-12 15:59N 59°30' E 024°56'0 0.2
2018-Feb-12 15:29N 59°30' E 024°57'1 1.3
2018-Feb-12 15:00N 59°30' E 024°58'0 0.0
2018-Feb-12 14:28N 59°30' E 024°58'0 0.0
2018-Feb-12 14:00N 59°30' E 024°58'0 0.0
2018-Feb-12 13:30N 59°30' E 024°58'0 0.0
2018-Feb-12 13:00N 59°30' E 024°58'0 0.0
2018-Feb-12 12:30N 59°30' E 024°58'0 0.0
2018-Feb-12 11:58N 59°30' E 024°58'0 0.0
2018-Feb-12 11:28N 59°30' E 024°58'0 0.0
2018-Feb-12 10:58N 59°30' E 024°58'0 0.0
2018-Feb-12 10:28N 59°30' E 024°58'0 0.0
2018-Feb-12 09:58N 59°30' E 024°58'0 0.0
2018-Feb-12 09:28N 59°30' E 024°58'0 0.0
2018-Feb-12 08:58N 59°30' E 024°58'1 1.3
2018-Feb-12 08:25N 59°30' E 024°56'0 0.0
2018-Feb-12 07:55N 59°30' E 024°56'0 0.0
2018-Feb-12 07:25N 59°30' E 024°56'0 0.0
2018-Feb-12 06:56N 59°30' E 024°56'0 0.0
2018-Feb-12 06:26N 59°30' E 024°56'0 0.0
2018-Feb-12 05:56N 59°30' E 024°56'0 0.0
2018-Feb-12 05:26N 59°30' E 024°56'0 0.0
2018-Feb-12 04:56N 59°30' E 024°56'0 0.0
2018-Feb-12 04:25N 59°30' E 024°56'0 0.0
2018-Feb-12 03:56N 59°30' E 024°56'0 0.0
2018-Feb-12 03:26N 59°30' E 024°56'0 0.0
2018-Feb-12 02:56N 59°30' E 024°56'0 0.0
2018-Feb-12 02:26N 59°30' E 024°56'0 0.0
2018-Feb-12 01:56N 59°30' E 024°56'0 0.0
2018-Feb-12 01:26N 59°30' E 024°56'0 0.0
2018-Feb-12 00:56N 59°30' E 024°56'0 0.0
2018-Feb-12 00:25N 59°30' E 024°56'0 0.0
2018-Feb-11 23:56N 59°30' E 024°56'0 0.0
2018-Feb-11 23:26N 59°30' E 024°56'0 0.0
2018-Feb-11 22:55N 59°30' E 024°56'0 0.0
2018-Feb-11 22:26N 59°30' E 024°56'0 0.0
2018-Feb-11 21:56N 59°30' E 024°56'0 0.0
2018-Feb-11 21:26N 59°30' E 024°56'0 0.0
2018-Feb-11 20:56N 59°30' E 024°56'0 0.0
2018-Feb-11 20:27N 59°30' E 024°56'0 0.0
2018-Feb-11 19:56N 59°30' E 024°56'0 0.0
2018-Feb-11 19:26N 59°30' E 024°56'0 0.0
2018-Feb-11 18:57N 59°30' E 024°56'0 0.0
2018-Feb-11 18:27N 59°30' E 024°56'0 0.0
2018-Feb-11 17:51N 59°30' E 024°56'0 0.0
2018-Feb-11 17:27N 59°30' E 024°56'0 0.0
2018-Feb-11 16:57N 59°30' E 024°56'0 0.0
2018-Feb-11 16:28N 59°30' E 024°56'0 0.0
2018-Feb-11 15:59N 59°30' E 024°56'0 0.0
2018-Feb-11 15:28N 59°30' E 024°56'0 0.0
2018-Feb-11 15:01N 59°30' E 024°56'0 0.0
2018-Feb-11 14:31N 59°30' E 024°56'0 0.0
2018-Feb-11 14:00N 59°30' E 024°56'0 0.0
2018-Feb-11 13:31N 59°30' E 024°56'0 0.0
2018-Feb-11 13:01N 59°30' E 024°56'0 0.0
2018-Feb-11 12:30N 59°30' E 024°56'0 0.0
2018-Feb-11 12:00N 59°30' E 024°56'0 0.0
2018-Feb-11 11:31N 59°30' E 024°56'0 0.0
2018-Feb-11 11:01N 59°30' E 024°56'0 0.1
2018-Feb-11 10:31N 59°30' E 024°56'2 4.8
2018-Feb-11 10:00N 59°32' E 024°56'4 8.1
2018-Feb-11 09:31N 59°35' E 024°50'0 0.1
2018-Feb-11 08:59N 59°35' E 024°50'0 0.0
2018-Feb-11 08:28N 59°35' E 024°50'0 0.0
2018-Feb-11 07:59N 59°35' E 024°50'0 0.0
2018-Feb-11 07:29N 59°35' E 024°50'0 0.0
2018-Feb-11 06:59N 59°35' E 024°50'0 0.0
2018-Feb-11 06:29N 59°35' E 024°50'0 0.0
2018-Feb-11 05:59N 59°35' E 024°50'0 0.0
2018-Feb-11 05:29N 59°35' E 024°50'0 0.0
2018-Feb-11 04:59N 59°35' E 024°50'0 0.0
2018-Feb-11 04:29N 59°35' E 024°50'0 0.0
2018-Feb-11 04:01N 59°35' E 024°50'1 1.0
2018-Feb-11 03:30N 59°35' E 024°49'0 0.1
2018-Feb-11 03:00N 59°35' E 024°48'0 0.0
2018-Feb-11 02:30N 59°35' E 024°48'0 0.0
2018-Feb-11 02:00N 59°35' E 024°48'0 0.0
2018-Feb-11 01:30N 59°35' E 024°48'0 0.0
2018-Feb-11 00:58N 59°35' E 024°48'0 0.0
2018-Feb-11 00:28N 59°35' E 024°48'0 0.0
2018-Feb-10 23:58N 59°35' E 024°48'0 0.0
2018-Feb-10 23:28N 59°35' E 024°48'0 0.0
2018-Feb-10 22:58N 59°35' E 024°48'0 0.0
2018-Feb-10 22:28N 59°35' E 024°48'0 0.0
2018-Feb-10 21:58N 59°35' E 024°48'0 0.0
2018-Feb-10 21:28N 59°35' E 024°48'0 0.0
2018-Feb-10 20:58N 59°35' E 024°48'0 0.0
2018-Feb-10 20:28N 59°35' E 024°48'0 0.0
2018-Feb-10 19:58N 59°35' E 024°48'0 0.0
2018-Feb-10 19:28N 59°35' E 024°48'0 0.0
2018-Feb-10 18:55N 59°35' E 024°48'0 0.0
2018-Feb-10 18:28N 59°35' E 024°48'0 0.0
2018-Feb-10 17:58N 59°35' E 024°48'0 0.0
2018-Feb-10 17:28N 59°35' E 024°48'0 0.0
2018-Feb-10 16:58N 59°35' E 024°48'0 0.0
2018-Feb-10 16:28N 59°35' E 024°48'0 0.0
2018-Feb-10 16:00N 59°35' E 024°48'0 0.0
2018-Feb-10 15:30N 59°35' E 024°48'0 0.0
2018-Feb-10 15:00N 59°35' E 024°48'0 0.0
2018-Feb-10 14:30N 59°35' E 024°48'0 0.0
2018-Feb-10 14:00N 59°35' E 024°48'0 0.0
2018-Feb-10 13:30N 59°35' E 024°48'0 0.0
2018-Feb-10 13:00N 59°35' E 024°48'0 0.0
2018-Feb-10 12:30N 59°35' E 024°48'0 0.0
2018-Feb-10 12:00N 59°35' E 024°48'0 0.0
2018-Feb-10 11:29N 59°35' E 024°48'0 0.0
2018-Feb-10 11:00N 59°35' E 024°48'0 0.0
2018-Feb-10 10:30N 59°35' E 024°48'0 0.0
2018-Feb-10 10:00N 59°35' E 024°48'0 0.0
2018-Feb-10 09:30N 59°35' E 024°48'0 0.0
2018-Feb-10 09:00N 59°35' E 024°48'0 0.0
2018-Feb-10 08:30N 59°35' E 024°48'0 0.0
2018-Feb-10 08:00N 59°35' E 024°48'0 0.0
2018-Feb-10 07:30N 59°35' E 024°48'0 0.0
2018-Feb-10 07:00N 59°35' E 024°48'0 0.0
2018-Feb-10 06:30N 59°35' E 024°48'0 0.0
2018-Feb-10 06:00N 59°35' E 024°48'  

Dump ship's entire track history